aviador You're here:

KSIK Decoded Metar

in
Report Time2018-01-18 13:55:00
UTC Time2018-01-18 13:53:45
Flight Rules vfr VFR
Wind200° at 04 kt
W.Decomp.*RWY 20: 4.0 kt HW 0 kt LCW
W.Rank200° ranks 1
Current wind is below 200° avg. (7.1)
Visibility9999 m
Phenomena:N/A
Clouds:N/A
Expected CloudBase > 400 ft AGL from Temp-Dew spread
CeilingNone
Temp-11°C
Dew Point-12°C (92% RH)
AAT-15.6°C
QNH1033 hPa
Raw Report
KSIK 181355Z AUTO 20004KT 10SM CLR M11/M12 A3051 RMK AO2=

Extra information for KSIK:More info

Social comments